»·PEaware :: AAL484 KLAS-KLAX

AAL484 :: KLAS-KLAX

FLIGHT INFORMATION

Flight Status: Arrived
Operator:
American Airlines
More flights by this operator :: More flights under this callsign
Pilot: Levi W. (27922)
Aircraft: AIRBUS A319
(A319)
More flights by this aircraft type
Origin: KLAS McCarran Intl
United States
Destination: KLAX Los Angeles Intl
United States
More flights between these airports :: More routes between these airports
Route: BOACH8 RIKII SHTNR ANJLL4
File this flight plan on PilotEdge
Remarks: RMK / SIMBRIEF
Altitude:
(Current/Filed)
28,000ft
Speed:
(Current/Filed)
444kts
Departed: 11-May-20 07:27 PM
Arrived: 11-May-20 08:08 PM
Distance/Time
Traveled:
205nm/0:41
Distance/Time
To Go:
Arrived

Flight Plot

Page will automatically refresh every two minutes.


Map Options




Map Legend


Flown Route
Filed Route
Departure Airport
Arrival Airport
Navaid (VOR, NDB)
Fix

Horizontal Profiles

Position Reports

Time Latitude Longitude Heading Altitude Ground
Speed
11-May-20 19:05 36.080253 -115.136023 46 2190ft 0kts
11-May-20 19:06 36.080253 -115.136023 46 2190ft 0kts
11-May-20 19:07 36.080253 -115.136023 46 2190ft 0kts
11-May-20 19:08 36.080253 -115.136023 46 2190ft 0kts
11-May-20 19:09 36.080253 -115.136023 47 2190ft 0kts
11-May-20 19:10 36.080253 -115.136023 46 2190ft 0kts
11-May-20 19:11 36.080253 -115.136023 46 2190ft 0kts
11-May-20 19:12 36.080253 -115.136023 46 2190ft 0kts
11-May-20 19:13 36.080253 -115.136023 47 2190ft 0kts
11-May-20 19:14 36.080253 -115.136023 47 2190ft 0kts
11-May-20 19:15 36.079949 -115.136425 46 2190ft 2kts
11-May-20 19:16 36.079879 -115.137097 129 2190ft 1kts
11-May-20 19:18 36.079945 -115.137181 135 2190ft 0kts
11-May-20 19:19 36.079945 -115.137181 135 2190ft 0kts
11-May-20 19:20 36.079863 -115.137082 135 2190ft 3kts
11-May-20 19:21 36.078339 -115.134973 109 2190ft 12kts
11-May-20 19:22 36.078282 -115.129743 90 2190ft 17kts
11-May-20 19:23 36.078286 -115.123108 92 2190ft 17kts
11-May-20 19:24 36.077579 -115.121640 131 2190ft 0kts
11-May-20 19:25 36.077573 -115.121632 131 2190ft 0kts
11-May-20 19:26 36.076425 -115.121556 271 2190ft 5kts
11-May-20 19:27 36.076770 -115.140992 273 2775ft 154kts
11-May-20 19:28 36.076561 -115.196796 245 6011ft 188kts
11-May-20 19:29 36.058916 -115.270233 209 6979ft 258kts
11-May-20 19:30 35.986542 -115.295107 201 10264ft 275kts
11-May-20 19:31 35.902113 -115.310299 188 12789ft 344kts
11-May-20 19:32 35.800830 -115.308953 178 15984ft 379kts
11-May-20 19:33 35.692656 -115.296789 180 18806ft 398kts
11-May-20 19:34 35.582276 -115.298745 185 19145ft 396kts
11-May-20 19:35 35.474420 -115.324599 211 20750ft 398kts
11-May-20 19:35 35.393906 -115.382879 213 23072ft 407kts
11-May-20 19:37 35.278290 -115.466975 213 25795ft 422kts
11-May-20 19:37 35.192858 -115.528808 214 27464ft 433kts
11-May-20 19:39 35.081916 -115.632469 228 27811ft 429kts
11-May-20 19:40 35.000034 -115.737736 228 27811ft 429kts
11-May-20 19:40 34.931488 -115.825226 228 27811ft 429kts
11-May-20 19:42 34.834823 -115.947527 228 27815ft 429kts
11-May-20 19:42 34.766189 -116.034373 228 27851ft 427kts
11-May-20 19:43 34.684091 -116.138921 228 27925ft 425kts
11-May-20 19:44 34.602378 -116.242745 228 27975ft 425kts
11-May-20 19:45 34.520306 -116.346728 228 27737ft 423kts
11-May-20 19:46 34.439776 -116.448730 230 26739ft 416kts
11-May-20 19:47 34.380065 -116.566214 244 25742ft 407kts
11-May-20 19:48 34.330715 -116.686625 244 24739ft 375kts
11-May-20 19:49 34.285543 -116.799333 244 23741ft 369kts
11-May-20 19:50 34.240612 -116.910673 244 22743ft 366kts
11-May-20 19:51 34.200645 -117.022638 251 21751ft 361kts
11-May-20 19:52 34.169630 -117.137194 251 20762ft 356kts
11-May-20 19:53 34.138749 -117.249839 251 19362ft 348kts
11-May-20 19:54 34.108560 -117.359179 251 17583ft 339kts
11-May-20 19:55 34.081366 -117.466550 253 15799ft 330kts
11-May-20 19:56 34.049130 -117.566164 247 13887ft 311kts
11-May-20 19:57 34.015432 -117.659641 247 11756ft 300kts
11-May-20 19:58 33.999777 -117.756984 263 9369ft 280kts
11-May-20 19:59 33.991237 -117.845556 263 7287ft 265kts
11-May-20 20:00 33.982741 -117.932904 263 6549ft 261kts
11-May-20 20:01 33.974177 -118.019577 263 5558ft 259kts
11-May-20 20:02 33.965682 -118.105040 263 4575ft 249kts
11-May-20 20:03 33.957911 -118.182631 262 3754ft 219kts
11-May-20 20:04 33.950613 -118.254912 262 2540ft 220kts
11-May-20 20:05 33.943251 -118.326691 262 1082ft 177kts
11-May-20 20:06 33.937877 -118.376014 264 257ft 120kts
11-May-20 20:07 33.936299 -118.398773 293 134ft 0kts
11-May-20 20:08 33.936299 -118.398774 293 134ft 0kts
11-May-20 20:09 33.936550 -118.401414 263 134ft 18kts
11-May-20 20:10 33.937790 -118.404268 357 134ft 0kts
11-May-20 20:11 33.938245 -118.404726 281 134ft 8kts
11-May-20 20:12 33.941361 -118.405690 331 134ft 0kts
11-May-20 20:13 33.941409 -118.406305 264 134ft 3kts
11-May-20 20:14 33.941399 -118.406418 264 134ft 0kts
11-May-20 20:15 33.941399 -118.406418 264 134ft 0kts
11-May-20 20:16 33.941399 -118.406418 264 134ft 0kts

Navigation Log

Ident Type
Flight plan parsing failed, navigation log unavailable